• Join FlightAware (Why Join?)
  • Login
  • US Flag 
06:55AM EDT


 

Airport Tracker/Info


-or-


 

Live Flight TrackerFlight Track Log ✈ FIN807 ✈ 28-Mar-2014 ✈ EFHK / HEL - EDDM / MUC

Flight Track Log - Related Links

Times and Time Zones

All times are in EDT time to prevent confusion due to time zone crossing. See the FIN807 flight status page for this flight to view local times or setup timezone preferences in your user account.

Time Position Orientation Groundspeed Altitude Reporting Facility
EDT Latitude Longitude Course Direction KTS MPH feet Rate Location/Type
10:41AM 60.0601 24.5581 218° Southwest  Level Estimated
10:42AM 59.9742 24.4244 218° Southwest  Level Estimated
10:43AM 59.8881 24.2914 218° Southwest  Level Estimated
10:44AM 59.8025 24.1601 218° Southwest  Level Estimated
10:45AM 59.7168 24.0294 218° Southwest  Level Estimated
10:46AM 59.6309 23.8995 217° Southwest  Level Estimated
10:47AM 59.5450 23.7702 217° Southwest  Level Estimated
10:48AM 59.4589 23.6416 217° Southwest  Level Estimated
10:49AM 59.3727 23.5136 217° Southwest  Level Estimated
10:50AM 59.2863 23.3862 217° Southwest  Level Estimated
10:51AM 59.1998 23.2596 217° Southwest  Level Estimated
10:52AM 59.1133 23.1335 217° Southwest  Level Estimated
10:53AM 59.0265 23.0081 217° Southwest  Level Estimated
10:54AM 58.9397 22.8833 217° Southwest  Level Estimated
10:55AM 58.8528 22.7592 216° Southwest  Level Estimated
10:56AM 58.7657 22.6356 216° Southwest  Level Estimated
10:57AM 58.6785 22.5127 216° Southwest  Level Estimated
10:58AM 58.5912 22.3904 216° Southwest  Level Estimated
10:59AM 58.5038 22.2687 216° Southwest  Level Estimated
11:00AM 58.4162 22.1476 216° Southwest  Level Estimated
11:01AM 58.3286 22.0272 216° Southwest  Level Estimated
11:02AM 58.2408 21.9073 216° Southwest  Level Estimated
11:03AM 58.1530 21.7880 216° Southwest  Level Estimated
11:04AM 58.0650 21.6693 216° Southwest  Level Estimated
11:05AM 57.9769 21.5511 215° Southwest  Level Estimated
11:06AM 57.8887 21.4336 215° Southwest  Level Estimated
11:07AM 57.8004 21.3166 215° Southwest  Level Estimated
11:08AM 57.7120 21.2002 215° Southwest  Level Estimated
11:09AM 57.6234 21.0844 215° Southwest  Level Estimated
11:10AM 57.5348 20.9691 215° Southwest  Level Estimated
11:11AM 57.4461 20.8544 215° Southwest  Level Estimated
11:12AM 57.3573 20.7403 215° Southwest  Level Estimated
11:13AM 57.2683 20.6267 215° Southwest  Level Estimated
11:14AM 57.1793 20.5136 215° Southwest  Level Estimated
11:15AM 57.0901 20.4011 214° Southwest  Level Estimated
11:16AM 57.0009 20.2891 214° Southwest  Level Estimated
11:17AM 56.9115 20.1777 214° Southwest  Level Estimated
11:18AM 56.8221 20.0668 214° Southwest  Level Estimated
11:19AM 56.7326 19.9564 214° Southwest  Level Estimated
11:20AM 56.6429 19.8466 214° Southwest  Level Estimated
11:21AM 56.5532 19.7373 214° Southwest  Level Estimated
11:22AM 56.4634 19.6285 214° Southwest  Level Estimated
11:23AM 56.3734 19.5201 214° Southwest  Level Estimated
11:24AM 56.2834 19.4124 214° Southwest  Level Estimated
11:25AM 56.1933 19.3051 214° Southwest  Level Estimated
11:26AM 56.1031 19.1983 213° Southwest  Level Estimated
11:27AM 56.0128 19.0920 213° Southwest  Level Estimated
11:28AM 55.9224 18.9863 213° Southwest  Level Estimated
11:29AM 55.8320 18.8810 213° Southwest  Level Estimated
11:30AM 55.7414 18.7762 213° Southwest  Level Estimated
11:31AM 55.6507 18.6719 213° Southwest  Level Estimated
11:32AM 55.5600 18.5680 213° Southwest  Level Estimated
11:33AM 55.4692 18.4647 213° Southwest  Level Estimated
11:34AM 55.3783 18.3618 213° Southwest  Level Estimated
11:35AM 55.2873 18.2594 213° Southwest  Level Estimated
11:36AM 55.1962 18.1575 213° Southwest  Level Estimated
11:37AM 55.1050 18.0560 212° Southwest  Level Estimated
11:38AM 55.0138 17.9550 212° Southwest  Level Estimated
11:39AM 54.9224 17.8544 212° Southwest  Level Estimated
11:40AM 54.8310 17.7543 212° Southwest  Level Estimated
11:41AM 54.7395 17.6547 212° Southwest  Level Estimated
11:42AM 54.6479 17.5555 212° Southwest  Level Estimated
11:43AM 54.5563 17.4568 212° Southwest  Level Estimated
11:44AM 54.4645 17.3585 212° Southwest  Level Estimated
11:45AM 54.3727 17.2606 212° Southwest  Level Estimated
11:46AM 54.2808 17.1632 212° Southwest  Level Estimated
11:47AM 54.1888 17.0662 212° Southwest  Level Estimated
11:48AM 54.0967 16.9696 212° Southwest  Level Estimated
11:49AM 54.0046 16.8735 212° Southwest  Level Estimated
11:50AM 53.9124 16.7778 211° Southwest  Level Estimated
11:51AM 53.8201 16.6825 211° Southwest  Level Estimated
11:52AM 53.7277 16.5876 211° Southwest  Level Estimated
11:53AM 53.6353 16.4932 211° Southwest  Level Estimated
11:54AM 53.5428 16.3991 211° Southwest  Level Estimated
11:55AM 53.4502 16.3055 211° Southwest  Level Estimated
11:56AM 53.3576 16.2123 211° Southwest  Level Estimated
11:57AM 53.2648 16.1195 211° Southwest  Level Estimated
11:58AM 53.1720 16.0271 211° Southwest  Level Estimated
11:59AM 53.0792 15.9350 211° Southwest  Level Estimated
12:00PM 52.9862 15.8434 211° Southwest  Level Estimated
12:01PM 52.8932 15.7522 211° Southwest  Level Estimated
12:02PM 52.7994 15.6607 211° Southwest  Level Estimated
12:03PM 52.7055 15.5695 210° Southwest  Level Estimated
12:04PM 52.6116 15.4788 210° Southwest  Level Estimated
12:05PM 52.5176 15.3884 210° Southwest  Level Estimated
12:06PM 52.4235 15.2985 210° Southwest  Level Estimated
12:07PM 52.3293 15.2089 210° Southwest  Level Estimated
12:08PM 52.2351 15.1196 210° Southwest  Level Estimated
12:09PM 52.1409 15.0308 210° Southwest  Level Estimated
12:10PM 52.0465 14.9424 210° Southwest  Level Estimated
12:11PM 51.9521 14.8543 210° Southwest  Level Estimated
12:12PM 51.8576 14.7666 210° Southwest  Level Estimated
12:13PM 51.7631 14.6792 210° Southwest  Level Estimated
12:14PM 51.6685 14.5923 210° Southwest  Level Estimated
12:15PM 51.5738 14.5056 210° Southwest  Level Estimated
12:16PM 51.4791 14.4194 210° Southwest  Level Estimated
12:17PM 51.3843 14.3335 209° Southwest  Level Estimated
12:18PM 51.2894 14.2479 209° Southwest  Level Estimated
12:19PM 51.1945 14.1628 209° Southwest  Level Estimated
12:20PM 51.0995 14.0779 209° Southwest  Level Estimated
12:21PM 51.0045 13.9934 209° Southwest  Level Estimated
12:22PM 50.9094 13.9093 209° Southwest  Level Estimated
12:23PM 50.8142 13.8255 209° Southwest  Level Estimated
12:24PM 50.7190 13.7420 209° Southwest  Level Estimated
12:25PM 50.6237 13.6589 209° Southwest  Level Estimated
12:26PM 50.5284 13.5761 209° Southwest  Level Estimated
12:27PM 50.4329 13.4937 209° Southwest  Level Estimated
12:28PM 50.3375 13.4115 209° Southwest  Level Estimated
12:29PM 50.2420 13.3297 209° Southwest  Level Estimated
12:30PM 50.1464 13.2483 209° Southwest  Level Estimated
12:31PM 50.0508 13.1671 209° Southwest  Level Estimated
12:32PM 49.9551 13.0863 209° Southwest  Level Estimated
12:33PM 49.8593 13.0058 208° Southwest  Level Estimated
12:34PM 49.7635 12.9256 208° Southwest  Level Estimated
12:35PM 49.6677 12.8458 208° Southwest  Level Estimated
12:36PM 49.5718 12.7662 208° Southwest  Level Estimated
12:37PM 49.4758 12.6870 208° Southwest  Level Estimated
12:38PM 49.3798 12.6081 208° Southwest  Level Estimated
12:39PM 49.2837 12.5295 208° Southwest  Level Estimated
12:40PM 49.1876 12.4512 208° Southwest  Level Estimated
12:41PM 49.0914 12.3731 208° Southwest  Level Estimated
12:42PM 48.9952 12.2955 208° Southwest  Level Estimated
12:43PM 48.8989 12.2180 208° Southwest  Level Estimated
12:44PM 48.7979 12.1372 208° Southwest  Level Estimated
12:45PM 48.6969 12.0567 208° Southwest  Level Estimated
12:46PM 48.5958 11.9765 208° Southwest  Level Estimated
12:47PM 48.4946 11.8967 208° Southwest  Level Estimated
12:48PM 48.3934 11.8171 208° Southwest  Level Estimated
12:49PM 48.3538 11.7861 208° Southwest  Level Estimated
12:50PM 48.3538 11.7861 North  Level Estimated
12:51PM 48.3538 11.7861 North  Level Estimated
12:52PM 48.3538 11.7861 North  Level Estimated
12:53PM 48.3538 11.7861 North  Level Estimated
12:54PM 48.3538 11.7861 North  Level Estimated
12:55PM 48.3538 11.7861 North  Level Estimated
12:56PM 48.3538 11.7861 North  Level Estimated
12:57PM 48.3538 11.7861 North  Level Estimated
12:58PM 48.3538 11.7861 North  Level Estimated